createdAt,value
2018-07-12T00:00:03.778Z,0.00
2018-07-12T00:01:03.693Z,0.00
2018-07-12T00:02:03.687Z,0.00
2018-07-12T00:03:03.673Z,0.00
2018-07-12T00:04:03.656Z,0.00
2018-07-12T00:05:03.712Z,0.00
2018-07-12T00:06:03.651Z,0.00
2018-07-12T00:07:03.626Z,0.00
2018-07-12T00:08:03.615Z,0.00
2018-07-12T00:09:03.607Z,0.00
2018-07-12T00:10:03.665Z,0.00
2018-07-12T00:11:03.584Z,0.00
2018-07-12T00:12:03.576Z,0.00
2018-07-12T00:13:03.568Z,0.00
2018-07-12T00:14:04.396Z,0.00
2018-07-12T00:15:03.598Z,0.00
2018-07-12T00:16:03.532Z,0.00
2018-07-12T00:17:03.524Z,0.00
2018-07-12T00:18:03.515Z,0.00
2018-07-12T00:19:03.495Z,0.00
2018-07-12T00:20:03.546Z,0.00
2018-07-12T00:21:03.475Z,0.00
2018-07-12T00:22:03.463Z,0.00
2018-07-12T00:23:03.454Z,0.00
2018-07-12T00:24:03.445Z,0.00
2018-07-12T00:25:03.498Z,0.00
2018-07-12T00:26:03.421Z,0.00
2018-07-12T00:27:03.409Z,0.00
2018-07-12T00:28:03.397Z,0.00
2018-07-12T00:29:03.403Z,0.00
2018-07-12T00:30:03.440Z,0.00
2018-07-12T00:31:03.389Z,0.00
2018-07-12T00:32:03.354Z,0.00
2018-07-12T00:33:03.349Z,0.00
2018-07-12T00:34:03.340Z,0.00
2018-07-12T00:35:10.959Z,0.00
2018-07-12T00:36:03.316Z,0.00
2018-07-12T00:37:03.311Z,0.00
2018-07-12T00:38:03.318Z,0.00
2018-07-12T00:39:03.283Z,0.00
2018-07-12T00:40:03.359Z,0.00
2018-07-12T00:41:03.312Z,0.00
2018-07-12T00:42:03.253Z,0.00
2018-07-12T00:43:03.241Z,0.00
2018-07-12T00:44:03.226Z,0.00
2018-07-12T00:45:03.295Z,0.00
2018-07-12T00:46:03.209Z,0.00
2018-07-12T00:47:03.198Z,0.00
2018-07-12T00:48:03.198Z,0.00
2018-07-12T00:49:03.184Z,0.00
2018-07-12T00:50:03.247Z,0.00
2018-07-12T00:51:03.164Z,0.00
2018-07-12T00:52:03.156Z,0.00
2018-07-12T00:53:03.131Z,0.00
2018-07-12T00:54:03.123Z,0.00
2018-07-12T00:55:03.186Z,0.00
2018-07-12T00:56:03.909Z,0.00
2018-07-12T00:57:03.098Z,0.00
2018-07-12T00:58:03.094Z,0.00
2018-07-12T00:59:03.070Z,0.00
2018-07-12T01:00:03.118Z,0.00
2018-07-12T01:01:03.047Z,0.00
2018-07-12T01:02:03.894Z,0.00
2018-07-12T01:03:03.027Z,0.00
2018-07-12T01:04:03.018Z,0.00
2018-07-12T01:05:03.005Z,0.00
2018-07-12T01:06:03.062Z,0.00
2018-07-12T01:07:02.993Z,0.00
2018-07-12T01:08:02.993Z,0.00
2018-07-12T01:09:02.968Z,0.00
2018-07-12T01:10:02.957Z,0.00
2018-07-12T01:11:03.002Z,0.00
2018-07-12T01:12:02.936Z,0.00
2018-07-12T01:13:02.929Z,0.00
2018-07-12T01:14:02.908Z,0.00
2018-07-12T01:15:02.902Z,0.00
2018-07-12T01:16:02.949Z,0.00
2018-07-12T01:17:03.387Z,0.00
2018-07-12T01:18:02.869Z,0.00
2018-07-12T01:19:02.862Z,0.00
2018-07-12T01:20:02.842Z,0.00
2018-07-12T01:21:02.903Z,0.00
2018-07-12T01:22:02.838Z,0.00
2018-07-12T01:23:02.811Z,0.00
2018-07-12T01:24:02.805Z,0.00
2018-07-12T01:25:02.796Z,0.00
2018-07-12T01:26:02.844Z,0.00
2018-07-12T01:27:02.772Z,0.00
2018-07-12T01:28:02.756Z,0.00
2018-07-12T01:29:02.745Z,0.00
2018-07-12T01:30:02.737Z,0.00
2018-07-12T01:31:02.799Z,0.00
2018-07-12T01:32:02.719Z,0.00
2018-07-12T01:33:02.714Z,0.00
2018-07-12T01:34:02.692Z,0.00
2018-07-12T01:35:02.683Z,0.00
2018-07-12T01:36:02.747Z,0.00
2018-07-12T01:37:02.669Z,0.00
2018-07-12T01:38:03.385Z,0.00
2018-07-12T01:39:02.642Z,0.00
2018-07-12T01:40:04.388Z,0.00
2018-07-12T01:41:02.683Z,0.00
2018-07-12T01:42:02.609Z,0.00
2018-07-12T01:43:02.595Z,0.00
2018-07-12T01:44:02.590Z,0.00
2018-07-12T01:45:02.576Z,0.00
2018-07-12T01:46:02.636Z,0.00
2018-07-12T01:47:02.551Z,0.00
2018-07-12T01:48:02.569Z,0.00
2018-07-12T01:49:02.529Z,0.00
2018-07-12T01:50:02.528Z,0.00
2018-07-12T01:51:02.576Z,0.00
2018-07-12T01:52:02.506Z,0.00
2018-07-12T01:53:02.492Z,0.00
2018-07-12T01:54:02.474Z,0.00
2018-07-12T01:55:02.465Z,0.00
2018-07-12T01:56:02.517Z,0.00
2018-07-12T01:57:02.449Z,0.00
2018-07-12T01:58:02.432Z,0.00
2018-07-12T01:59:03.388Z,0.00
2018-07-12T02:00:02.414Z,0.00
2018-07-12T02:01:02.470Z,0.00
2018-07-12T02:02:02.391Z,0.00
2018-07-12T02:03:02.381Z,0.00
2018-07-12T02:04:02.369Z,0.00
2018-07-12T02:05:02.366Z,0.00
2018-07-12T02:06:02.423Z,0.00
2018-07-12T02:07:02.338Z,0.00
2018-07-12T02:08:02.327Z,0.00
2018-07-12T02:09:02.316Z,0.00
2018-07-12T02:10:02.304Z,0.00
2018-07-12T02:11:02.373Z,0.00
2018-07-12T02:12:02.283Z,0.00
2018-07-12T02:13:02.279Z,0.00
2018-07-12T02:14:02.263Z,0.00
2018-07-12T02:15:02.253Z,0.00
2018-07-12T02:16:02.305Z,0.00
2018-07-12T02:17:02.276Z,0.00
2018-07-12T02:18:02.217Z,0.00
2018-07-12T02:19:02.218Z,0.00
2018-07-12T02:20:02.884Z,0.00
2018-07-12T02:21:02.250Z,0.00
2018-07-12T02:22:02.175Z,0.00
2018-07-12T02:23:02.161Z,0.00
2018-07-12T02:24:02.163Z,0.00
2018-07-12T02:25:02.150Z,0.00
2018-07-12T02:26:02.202Z,0.00
2018-07-12T02:27:02.124Z,0.00
2018-07-12T02:28:02.112Z,0.00
2018-07-12T02:29:02.098Z,0.00
2018-07-12T02:30:02.090Z,0.00
2018-07-12T02:31:02.137Z,0.00
2018-07-12T02:32:02.086Z,0.00
2018-07-12T02:33:02.057Z,0.00
2018-07-12T02:34:02.051Z,0.00
2018-07-12T02:35:02.109Z,0.00
2018-07-12T02:36:02.088Z,0.00
2018-07-12T02:37:02.021Z,0.00
2018-07-12T02:38:02.007Z,0.00
2018-07-12T02:39:01.993Z,0.00
2018-07-12T02:40:01.991Z,0.00
2018-07-12T02:41:05.453Z,0.00
2018-07-12T02:42:01.960Z,0.00
2018-07-12T02:43:01.949Z,0.00
2018-07-12T02:44:01.948Z,0.00
2018-07-12T02:45:01.927Z,0.00
2018-07-12T02:46:01.995Z,0.00
2018-07-12T02:47:01.908Z,0.00
2018-07-12T02:48:01.900Z,0.00
2018-07-12T02:49:01.914Z,0.00
2018-07-12T02:50:01.875Z,4.00
2018-07-12T02:51:01.871Z,4.00
2018-07-12T02:52:01.923Z,4.00
2018-07-12T02:53:01.844Z,4.00
2018-07-12T02:54:01.854Z,0.00
2018-07-12T02:55:01.821Z,4.00
2018-07-12T02:56:01.830Z,4.00
2018-07-12T02:57:01.863Z,4.00
2018-07-12T02:58:01.796Z,8.00
2018-07-12T02:59:01.783Z,4.00
2018-07-12T03:00:01.766Z,4.00
2018-07-12T03:01:01.756Z,8.00
2018-07-12T03:02:01.954Z,8.00
2018-07-12T03:03:01.739Z,8.00
2018-07-12T03:04:01.725Z,8.00
2018-07-12T03:05:01.715Z,12.00
2018-07-12T03:06:01.705Z,16.00
2018-07-12T03:07:01.755Z,16.00
2018-07-12T03:08:01.692Z,16.00
2018-07-12T03:09:01.668Z,20.00
2018-07-12T03:10:01.662Z,24.00
2018-07-12T03:11:01.667Z,28.00
2018-07-12T03:12:01.712Z,28.00
2018-07-12T03:13:01.630Z,36.00
2018-07-12T03:14:01.619Z,36.00
2018-07-12T03:15:01.609Z,40.00
2018-07-12T03:16:01.595Z,48.00
2018-07-12T03:17:01.648Z,56.00
2018-07-12T03:18:01.573Z,56.00
2018-07-12T03:19:01.567Z,64.00
2018-07-12T03:20:01.555Z,72.00
2018-07-12T03:21:01.537Z,84.00
2018-07-12T03:22:01.606Z,92.00
2018-07-12T03:23:02.377Z,100.00
2018-07-12T03:24:01.513Z,108.00
2018-07-12T03:25:01.499Z,124.00
2018-07-12T03:26:01.490Z,136.00
2018-07-12T03:27:01.538Z,148.00
2018-07-12T03:28:01.463Z,160.00
2018-07-12T03:29:02.382Z,172.00
2018-07-12T03:30:01.443Z,192.00
2018-07-12T03:31:01.436Z,204.00
2018-07-12T03:32:09.029Z,224.00
2018-07-12T03:33:09.585Z,240.00
2018-07-12T03:34:09.569Z,264.00
2018-07-12T03:35:09.574Z,288.00
2018-07-12T03:36:01.447Z,316.00
2018-07-12T03:37:01.436Z,340.00
2018-07-12T03:38:01.373Z,364.00
2018-07-12T03:39:01.359Z,388.00
2018-07-12T03:40:09.445Z,412.00
2018-07-12T03:41:09.473Z,436.00
2018-07-12T03:42:09.589Z,464.00
2018-07-12T03:43:08.852Z,496.00
2018-07-12T03:44:08.831Z,528.00
2018-07-12T03:45:08.822Z,560.00
2018-07-12T03:46:01.267Z,576.00
2018-07-12T03:47:01.347Z,580.00
2018-07-12T03:48:01.258Z,580.00
2018-07-12T03:49:01.240Z,564.00
2018-07-12T03:50:01.227Z,552.00
2018-07-12T03:51:01.224Z,544.00
2018-07-12T03:52:01.276Z,544.00
2018-07-12T03:53:01.200Z,552.00
2018-07-12T03:54:01.180Z,564.00
2018-07-12T03:55:01.754Z,596.00
2018-07-12T03:56:01.166Z,636.00
2018-07-12T03:57:01.249Z,696.00
2018-07-12T03:58:01.201Z,760.00
2018-07-12T03:59:01.131Z,828.00
2018-07-12T04:00:01.128Z,880.00
2018-07-12T04:01:01.109Z,892.00
2018-07-12T04:02:01.335Z,888.00
2018-07-12T04:03:01.084Z,888.00
2018-07-12T04:04:01.070Z,916.00
2018-07-12T04:05:01.061Z,960.00
2018-07-12T04:06:01.053Z,1040.00
2018-07-12T04:07:01.103Z,1152.00
2018-07-12T04:08:01.029Z,1212.00
2018-07-12T04:09:01.017Z,1236.00
2018-07-12T04:10:01.012Z,1268.00
2018-07-12T04:11:01.053Z,1324.00
2018-07-12T04:12:01.056Z,1352.00
2018-07-12T04:13:00.973Z,1372.00
2018-07-12T04:14:00.965Z,1380.00
2018-07-12T04:15:00.964Z,1416.00
2018-07-12T04:16:03.749Z,1468.00
2018-07-12T04:17:00.998Z,1552.00
2018-07-12T04:18:00.921Z,1648.00
2018-07-12T04:19:00.916Z,1724.00
2018-07-12T04:20:00.906Z,1812.00
2018-07-12T04:21:00.890Z,1904.00
2018-07-12T04:22:00.943Z,1976.00
2018-07-12T04:23:00.868Z,2076.00
2018-07-12T04:24:00.854Z,2212.00
2018-07-12T04:25:00.846Z,2376.00
2018-07-12T04:26:00.837Z,2552.00
2018-07-12T04:27:00.887Z,2728.00
2018-07-12T04:28:00.815Z,2884.00
2018-07-12T04:29:00.802Z,3084.00
2018-07-12T04:30:00.794Z,3324.00
2018-07-12T04:31:00.781Z,3624.00
2018-07-12T04:32:00.782Z,4016.00
2018-07-12T04:33:00.827Z,4328.00
2018-07-12T04:34:00.750Z,4536.00
2018-07-12T04:35:00.740Z,4592.00
2018-07-12T04:36:00.728Z,4616.00
2018-07-12T04:37:01.260Z,4460.00
2018-07-12T04:38:00.775Z,4340.00
2018-07-12T04:39:00.694Z,4380.00
2018-07-12T04:40:00.683Z,4408.00
2018-07-12T04:41:00.672Z,4336.00
2018-07-12T04:42:00.659Z,4528.00
2018-07-12T04:43:00.720Z,4884.00
2018-07-12T04:44:00.647Z,5204.00
2018-07-12T04:45:00.628Z,5224.00
2018-07-12T04:46:00.633Z,5212.00
2018-07-12T04:47:00.614Z,5256.00
2018-07-12T04:48:00.661Z,5432.00
2018-07-12T04:49:00.592Z,5500.00
2018-07-12T04:50:00.594Z,5592.00
2018-07-12T04:51:00.572Z,5672.00
2018-07-12T04:52:00.556Z,5776.00
2018-07-12T04:53:00.627Z,6124.00
2018-07-12T04:54:00.529Z,6332.00
2018-07-12T04:55:00.533Z,6468.00
2018-07-12T04:56:00.507Z,6512.00
2018-07-12T04:57:00.543Z,6728.00
2018-07-12T04:58:00.829Z,7016.00
2018-07-12T04:59:00.476Z,7096.00
2018-07-12T05:00:00.489Z,6972.00
2018-07-12T05:01:00.475Z,6652.00
2018-07-12T05:02:00.443Z,6372.00
2018-07-12T05:03:00.504Z,6652.00
2018-07-12T05:04:00.426Z,6884.00
2018-07-12T05:05:00.419Z,6956.00
2018-07-12T05:06:00.404Z,7040.00
2018-07-12T05:07:00.406Z,6912.00
2018-07-12T05:08:00.477Z,6540.00
2018-07-12T05:09:00.368Z,6272.00
2018-07-12T05:10:00.365Z,6004.00
2018-07-12T05:11:00.363Z,5816.00
2018-07-12T05:12:00.341Z,5880.00
2018-07-12T05:13:00.393Z,6344.00
2018-07-12T05:14:00.316Z,6760.00
2018-07-12T05:15:00.313Z,7120.00
2018-07-12T05:16:00.296Z,7536.00
2018-07-12T05:17:00.288Z,7812.00
2018-07-12T05:18:00.349Z,8124.00
2018-07-12T05:19:01.267Z,8184.00
2018-07-12T05:20:00.255Z,8168.00
2018-07-12T05:21:00.241Z,8232.00
2018-07-12T05:22:00.244Z,8752.00
2018-07-12T05:23:00.287Z,8896.00
2018-07-12T05:24:00.212Z,8748.00
2018-07-12T05:25:00.226Z,7828.00
2018-07-12T05:26:00.196Z,7344.00
2018-07-12T05:27:00.189Z,7720.00
2018-07-12T05:28:00.231Z,8476.00
2018-07-12T05:29:00.168Z,8884.00
2018-07-12T05:30:00.142Z,8672.00
2018-07-12T05:31:00.131Z,8344.00
2018-07-12T05:32:00.122Z,8200.00
2018-07-12T05:33:00.188Z,8264.00
2018-07-12T05:34:00.106Z,8308.00
2018-07-12T05:35:00.092Z,8108.00
2018-07-12T05:36:00.085Z,7964.00
2018-07-12T05:37:00.071Z,7472.00
2018-07-12T05:38:00.117Z,6932.00
2018-07-12T05:39:00.096Z,6856.00
2018-07-12T05:40:00.738Z,6940.00
2018-07-12T05:41:00.024Z,7392.00
2018-07-12T05:42:00.038Z,8216.00
2018-07-12T05:43:00.081Z,9060.00
2018-07-12T05:43:59.990Z,9172.00
2018-07-12T05:44:59.984Z,8720.00
2018-07-12T05:45:59.972Z,8560.00
2018-07-12T05:46:59.967Z,9136.00
2018-07-12T05:48:00.016Z,9660.00
2018-07-12T05:48:59.942Z,9916.00
2018-07-12T05:49:59.931Z,10376.00
2018-07-12T05:50:59.920Z,10360.00
2018-07-12T05:51:59.909Z,10628.00
2018-07-12T05:52:59.974Z,10720.00
2018-07-12T05:53:59.890Z,9804.00
2018-07-12T05:54:59.892Z,9816.00
2018-07-12T05:55:59.865Z,10568.00
2018-07-12T05:56:59.857Z,11588.00
2018-07-12T05:57:59.906Z,11624.00
2018-07-12T05:58:59.842Z,11912.00
2018-07-12T05:59:59.823Z,12600.00
2018-07-12T06:01:00.740Z,11132.00
2018-07-12T06:01:59.804Z,11028.00
2018-07-12T06:03:00.339Z,9880.00
2018-07-12T06:03:59.783Z,8536.00
2018-07-12T06:04:59.779Z,7936.00
2018-07-12T06:05:59.765Z,8356.00
2018-07-12T06:07:00.747Z,8132.00
2018-07-12T06:07:59.804Z,8872.00
2018-07-12T06:08:59.729Z,8628.00
2018-07-12T06:09:59.720Z,7520.00
2018-07-12T06:10:59.712Z,7796.00
2018-07-12T06:11:59.702Z,9656.00
2018-07-12T06:12:59.759Z,10696.00
2018-07-12T06:13:59.679Z,9364.00
2018-07-12T06:14:59.678Z,8648.00
2018-07-12T06:15:59.684Z,8256.00
2018-07-12T06:16:59.655Z,9092.00
2018-07-12T06:17:59.710Z,8036.00
2018-07-12T06:18:59.671Z,7912.00
2018-07-12T06:19:59.611Z,6980.00
2018-07-12T06:20:59.607Z,6448.00
2018-07-12T06:22:00.242Z,6448.00
2018-07-12T06:22:59.657Z,6368.00
2018-07-12T06:23:59.569Z,6984.00
2018-07-12T06:24:59.561Z,7752.00
2018-07-12T06:25:59.550Z,9760.00
2018-07-12T06:26:59.539Z,12980.00
2018-07-12T06:27:59.529Z,16992.00
2018-07-12T06:28:59.591Z,13952.00
2018-07-12T06:29:59.539Z,15284.00
2018-07-12T06:30:59.497Z,16100.00
2018-07-12T06:31:59.486Z,18880.00
2018-07-12T06:32:59.472Z,21920.00
2018-07-12T06:33:59.527Z,18784.00
2018-07-12T06:34:59.447Z,18752.00
2018-07-12T06:35:59.462Z,19200.00
2018-07-12T06:36:59.430Z,20192.00
2018-07-12T06:37:59.417Z,23616.00
2018-07-12T06:38:59.479Z,21184.00
2018-07-12T06:39:59.394Z,23072.00
2018-07-12T06:40:59.392Z,25920.00
2018-07-12T06:41:59.385Z,18464.00
2018-07-12T06:43:00.241Z,16992.00
2018-07-12T06:43:59.461Z,25824.00
2018-07-12T06:44:59.350Z,22848.00
2018-07-12T06:45:59.339Z,26336.00
2018-07-12T06:46:59.328Z,26016.00
2018-07-12T06:47:59.311Z,23424.00
2018-07-12T06:48:59.367Z,28608.00
2018-07-12T06:49:59.289Z,31136.00
2018-07-12T06:50:59.282Z,24832.00
2018-07-12T06:51:59.270Z,19648.00
2018-07-12T06:52:59.267Z,15888.00
2018-07-12T06:53:59.311Z,13364.00
2018-07-12T06:54:59.234Z,11812.00
2018-07-12T06:55:59.226Z,10776.00
2018-07-12T06:56:59.213Z,10496.00
2018-07-12T06:58:22.760Z,9388.00
2018-07-12T06:58:59.259Z,8364.00
2018-07-12T06:59:59.190Z,8436.00
2018-07-12T07:00:59.193Z,8236.00
2018-07-12T07:01:59.165Z,8636.00
2018-07-12T07:02:59.157Z,9212.00
2018-07-12T07:03:59.821Z,10860.00
2018-07-12T07:04:59.145Z,12000.00
2018-07-12T07:05:59.158Z,12632.00
2018-07-12T07:06:59.104Z,13604.00
2018-07-12T07:07:59.100Z,13800.00
2018-07-12T07:08:59.146Z,12544.00
2018-07-12T07:09:59.110Z,11984.00
2018-07-12T07:10:59.069Z,11024.00
2018-07-12T07:11:59.071Z,9744.00
2018-07-12T07:12:59.055Z,8920.00
2018-07-12T07:13:59.122Z,7992.00
2018-07-12T07:14:59.030Z,7496.00
2018-07-12T07:15:59.024Z,7548.00
2018-07-12T07:16:59.000Z,8020.00
2018-07-12T07:17:58.991Z,8572.00
2018-07-12T07:18:59.047Z,9116.00
2018-07-12T07:19:58.966Z,10196.00
2018-07-12T07:21:06.480Z,11424.00
2018-07-12T07:22:07.064Z,10948.00
2018-07-12T07:22:58.939Z,10948.00
2018-07-12T07:23:58.990Z,10488.00
2018-07-12T07:24:58.914Z,10272.00
2018-07-12T07:25:58.917Z,11716.00
2018-07-12T07:26:58.895Z,12044.00
2018-07-12T07:27:58.884Z,11144.00
2018-07-12T07:28:58.936Z,10148.00
2018-07-12T07:29:58.865Z,9292.00
2018-07-12T07:30:58.868Z,8780.00
2018-07-12T07:32:06.944Z,8896.00
2018-07-12T07:33:11.891Z,8988.00
2018-07-12T07:33:58.905Z,9476.00
2018-07-12T07:34:58.813Z,10056.00
2018-07-12T07:35:59.399Z,10000.00
2018-07-12T07:36:58.785Z,9000.00
2018-07-12T07:37:58.779Z,8244.00
2018-07-12T07:38:58.824Z,8148.00
2018-07-12T07:39:58.759Z,9252.00
2018-07-12T07:40:58.770Z,10744.00
2018-07-12T07:41:58.730Z,11020.00
2018-07-12T07:42:58.748Z,10064.00
2018-07-12T07:43:58.771Z,10348.00
2018-07-12T07:44:58.704Z,11064.00
2018-07-12T07:45:58.689Z,10856.00
2018-07-12T07:47:06.211Z,10752.00
2018-07-12T07:47:58.674Z,12680.00
2018-07-12T07:48:58.740Z,15192.00
2018-07-12T07:49:58.642Z,18656.00
2018-07-12T07:50:58.635Z,16964.00
2018-07-12T07:51:58.624Z,15176.00
2018-07-12T07:52:58.613Z,15760.00
2018-07-12T07:53:59.516Z,22496.00
2018-07-12T07:54:58.599Z,38848.00
2018-07-12T07:55:58.577Z,73696.00
2018-07-12T07:56:58.607Z,39776.00
2018-07-12T07:57:58.571Z,33824.00
2018-07-12T07:58:58.624Z,73888.00
2018-07-12T07:59:58.541Z,68192.00
2018-07-12T08:00:58.541Z,74592.00
2018-07-12T08:01:58.516Z,80512.00
2018-07-12T08:02:58.506Z,40160.00
2018-07-12T08:03:58.510Z,40000.00
2018-07-12T08:04:58.549Z,43360.00
2018-07-12T08:05:58.475Z,38528.00
2018-07-12T08:06:58.472Z,48128.00
2018-07-12T08:07:58.455Z,49824.00
2018-07-12T08:08:58.444Z,69024.00
2018-07-12T08:09:58.494Z,59776.00
2018-07-12T08:10:58.481Z,41248.00
2018-07-12T08:11:58.413Z,36480.00
2018-07-12T08:12:58.402Z,31552.00
2018-07-12T08:13:58.395Z,30656.00
2018-07-12T08:14:58.489Z,27200.00
2018-07-12T08:15:58.372Z,19456.00
2018-07-12T08:16:58.364Z,19808.00
2018-07-12T08:17:58.360Z,23392.00
2018-07-12T08:18:58.342Z,27584.00
2018-07-12T08:19:58.389Z,36672.00
2018-07-12T08:20:58.318Z,59456.00
2018-07-12T08:21:58.320Z,36320.00
2018-07-12T08:22:58.345Z,45120.00
2018-07-12T08:23:58.289Z,46208.00
2018-07-12T08:24:58.348Z,24448.00
2018-07-12T08:25:58.267Z,19904.00
2018-07-12T08:26:58.253Z,19904.00
2018-07-12T08:27:58.245Z,18400.00
2018-07-12T08:28:58.234Z,16948.00
2018-07-12T08:29:58.292Z,18336.00
2018-07-12T08:30:58.225Z,22208.00
2018-07-12T08:31:58.204Z,29248.00
2018-07-12T08:32:58.195Z,32640.00
2018-07-12T08:33:58.186Z,22400.00
2018-07-12T08:34:58.236Z,17312.00
2018-07-12T08:35:58.919Z,14608.00
2018-07-12T08:36:58.169Z,13004.00
2018-07-12T08:37:58.142Z,12756.00
2018-07-12T08:39:00.649Z,12588.00
2018-07-12T08:40:02.538Z,12540.00
2018-07-12T08:40:58.109Z,12468.00
2018-07-12T08:42:00.147Z,14664.00
2018-07-12T08:42:58.121Z,38080.00
2018-07-12T08:43:58.128Z,20160.00
2018-07-12T08:44:58.141Z,21792.00
2018-07-12T08:45:58.059Z,26304.00
2018-07-12T08:46:58.056Z,26720.00
2018-07-12T08:47:58.034Z,20960.00
2018-07-12T08:48:58.026Z,20576.00
2018-07-12T08:49:58.078Z,24576.00
2018-07-12T08:50:58.001Z,53792.00
2018-07-12T08:51:57.992Z,41376.00
2018-07-12T08:52:58.018Z,33888.00
2018-07-12T08:53:57.977Z,28960.00
2018-07-12T08:54:58.034Z,28512.00
2018-07-12T08:55:57.953Z,27072.00
2018-07-12T08:56:58.921Z,24736.00
2018-07-12T08:57:57.929Z,21536.00
2018-07-12T08:58:57.923Z,19392.00
2018-07-12T08:59:57.978Z,17824.00
2018-07-12T09:00:57.901Z,17696.00
2018-07-12T09:01:57.911Z,17984.00
2018-07-12T09:02:57.886Z,17504.00
2018-07-12T09:03:57.874Z,18016.00
2018-07-12T09:04:57.925Z,19424.00
2018-07-12T09:05:57.851Z,20064.00
2018-07-12T09:06:57.837Z,22560.00
2018-07-12T09:07:57.830Z,29792.00
2018-07-12T09:08:57.815Z,41632.00
2018-07-12T09:09:57.868Z,49952.00
2018-07-12T09:10:57.793Z,41216.00
2018-07-12T09:11:57.788Z,29856.00
2018-07-12T09:12:57.773Z,27136.00
2018-07-12T09:13:57.765Z,53152.00
2018-07-12T09:14:57.812Z,29536.00
2018-07-12T09:15:57.743Z,21664.00
2018-07-12T09:16:57.733Z,23200.00
2018-07-12T09:17:58.421Z,25344.00
2018-07-12T09:18:57.718Z,25600.00
2018-07-12T09:19:57.763Z,26048.00
2018-07-12T09:20:57.690Z,29344.00
2018-07-12T09:21:57.687Z,32032.00
2018-07-12T09:22:57.674Z,29152.00
2018-07-12T09:23:57.658Z,24992.00
2018-07-12T09:24:57.993Z,20896.00
2018-07-12T09:25:57.644Z,16504.00
2018-07-12T09:26:57.629Z,14276.00
2018-07-12T09:27:57.616Z,14644.00
2018-07-12T09:28:57.675Z,17344.00
2018-07-12T09:29:57.658Z,20288.00
2018-07-12T09:30:57.587Z,19136.00
2018-07-12T09:31:57.572Z,18048.00
2018-07-12T09:32:57.569Z,17248.00
2018-07-12T09:33:57.554Z,16128.00
2018-07-12T09:34:57.676Z,15404.00
2018-07-12T09:35:57.534Z,14660.00
2018-07-12T09:36:57.971Z,15044.00
2018-07-12T09:37:57.514Z,18400.00
2018-07-12T09:38:58.422Z,20992.00
2018-07-12T09:39:57.570Z,19456.00
2018-07-12T09:40:57.484Z,16480.00
2018-07-12T09:41:57.470Z,15096.00
2018-07-12T09:42:57.531Z,14596.00
2018-07-12T09:43:57.453Z,14980.00
2018-07-12T09:44:57.460Z,14708.00
2018-07-12T09:45:57.504Z,12284.00
2018-07-12T09:46:57.455Z,9892.00
2018-07-12T09:47:57.419Z,8796.00
2018-07-12T09:48:57.404Z,8572.00
2018-07-12T09:49:57.384Z,8448.00
2018-07-12T09:50:57.442Z,8376.00
2018-07-12T09:51:57.378Z,9024.00
2018-07-12T09:52:57.356Z,12032.00
2018-07-12T09:53:57.351Z,17040.00
2018-07-12T09:54:57.339Z,23968.00
2018-07-12T09:55:57.462Z,36576.00
2018-07-12T09:56:57.315Z,100352.00
2018-07-12T09:57:57.593Z,43968.00
2018-07-12T09:58:57.303Z,38496.00
2018-07-12T09:59:57.931Z,30592.00
2018-07-12T10:00:57.334Z,32096.00
2018-07-12T10:01:57.260Z,32672.00
2018-07-12T10:02:57.251Z,42880.00
2018-07-12T10:03:57.237Z,88256.00
2018-07-12T10:04:57.243Z,47904.00
2018-07-12T10:05:57.279Z,102016.00
2018-07-12T10:06:57.214Z,118240.00
2018-07-12T10:07:57.198Z,117920.00
2018-07-12T10:08:57.187Z,117952.00
2018-07-12T10:09:57.182Z,111680.00
2018-07-12T10:10:57.235Z,110080.00
2018-07-12T10:11:57.162Z,111200.00
2018-07-12T10:12:57.151Z,109856.00
2018-07-12T10:13:57.147Z,120384.00
2018-07-12T10:14:57.132Z,106432.00
2018-07-12T10:15:57.195Z,36416.00
2018-07-12T10:16:57.110Z,96768.00
2018-07-12T10:17:57.105Z,87456.00
2018-07-12T10:18:57.090Z,73760.00
2018-07-12T10:19:57.088Z,63552.00
2018-07-12T10:20:57.500Z,37984.00
2018-07-12T10:21:57.065Z,32960.00
2018-07-12T10:22:57.054Z,24544.00
2018-07-12T10:23:57.045Z,21024.00
2018-07-12T10:24:57.034Z,20960.00
2018-07-12T10:25:57.087Z,25184.00
2018-07-12T10:26:57.023Z,27552.00
2018-07-12T10:27:57.007Z,25216.00
2018-07-12T10:28:56.998Z,24768.00
2018-07-12T10:29:56.984Z,29760.00
2018-07-12T10:30:57.059Z,103584.00
2018-07-12T10:31:56.967Z,106624.00
2018-07-12T10:32:56.958Z,113984.00
2018-07-12T10:33:56.948Z,114240.00
2018-07-12T10:34:56.942Z,111296.00
2018-07-12T10:35:56.992Z,65888.00
2018-07-12T10:36:56.939Z,57888.00
2018-07-12T10:37:56.909Z,111488.00
2018-07-12T10:38:56.909Z,117984.00
2018-07-12T10:39:56.901Z,114912.00
2018-07-12T10:40:56.953Z,116928.00
2018-07-12T10:41:57.432Z,48480.00
2018-07-12T10:42:56.864Z,34816.00
2018-07-12T10:43:56.860Z,30400.00
2018-07-12T10:44:56.856Z,29888.00
2018-07-12T10:45:56.914Z,30496.00
2018-07-12T10:46:56.855Z,31840.00
2018-07-12T10:47:56.817Z,35296.00
2018-07-12T10:48:56.809Z,40224.00
2018-07-12T10:49:56.798Z,37632.00
2018-07-12T10:50:56.847Z,53696.00
2018-07-12T10:51:56.775Z,103200.00
2018-07-12T10:52:56.775Z,51008.00
2018-07-12T10:53:56.761Z,64960.00
2018-07-12T10:54:56.750Z,74016.00
2018-07-12T10:55:56.813Z,79872.00
2018-07-12T10:56:56.733Z,81056.00
2018-07-12T10:57:56.725Z,52288.00
2018-07-12T10:58:56.734Z,70496.00
2018-07-12T11:00:04.391Z,31616.00
2018-07-12T11:00:56.764Z,29856.00
2018-07-12T11:01:56.692Z,29248.00
2018-07-12T11:02:56.677Z,30176.00
2018-07-12T11:03:56.669Z,32576.00
2018-07-12T11:04:56.658Z,34752.00
2018-07-12T11:05:56.732Z,39872.00
2018-07-12T11:06:56.655Z,64384.00
2018-07-12T11:07:57.550Z,52960.00
2018-07-12T11:08:56.688Z,75488.00
2018-07-12T11:09:56.635Z,59872.00
2018-07-12T11:10:57.048Z,96256.00
2018-07-12T11:11:57.469Z,81728.00
2018-07-12T11:12:56.605Z,52512.00
2018-07-12T11:13:56.575Z,44288.00
2018-07-12T11:14:56.580Z,36544.00
2018-07-12T11:15:56.628Z,33568.00
2018-07-12T11:16:56.553Z,38208.00
2018-07-12T11:18:05.615Z,39008.00
2018-07-12T11:18:56.530Z,85248.00
2018-07-12T11:19:56.549Z,85760.00
2018-07-12T11:20:56.591Z,106048.00
2018-07-12T11:21:56.503Z,90208.00
2018-07-12T11:22:56.494Z,60768.00
2018-07-12T11:23:56.487Z,64704.00
2018-07-12T11:24:56.477Z,49088.00
2018-07-12T11:25:56.509Z,34368.00
2018-07-12T11:26:56.519Z,34336.00
2018-07-12T11:27:56.447Z,40736.00
2018-07-12T11:28:56.433Z,53728.00
2018-07-12T11:29:56.428Z,78592.00
2018-07-12T11:30:56.417Z,69408.00
2018-07-12T11:31:56.496Z,117216.00
2018-07-12T11:32:56.399Z,52704.00
2018-07-12T11:33:56.420Z,101856.00
2018-07-12T11:34:56.382Z,107392.00
2018-07-12T11:35:56.374Z,50912.00
2018-07-12T11:36:56.458Z,48416.00
2018-07-12T11:37:56.352Z,30560.00
2018-07-12T11:38:57.011Z,27648.00
2018-07-12T11:39:56.338Z,27360.00
2018-07-12T11:40:56.332Z,28416.00
2018-07-12T11:41:56.387Z,29472.00
2018-07-12T11:42:56.319Z,30400.00
2018-07-12T11:43:56.297Z,32512.00
2018-07-12T11:44:56.288Z,37664.00
2018-07-12T11:45:56.281Z,69536.00
2018-07-12T11:46:56.361Z,60288.00
2018-07-12T11:47:56.258Z,109568.00
2018-07-12T11:48:56.249Z,96256.00
2018-07-12T11:49:56.244Z,54112.00
2018-07-12T11:50:56.291Z,58624.00
2018-07-12T11:51:56.288Z,79424.00
2018-07-12T11:52:56.223Z,99168.00
2018-07-12T11:53:56.211Z,105440.00
2018-07-12T11:54:56.194Z,107968.00
2018-07-12T11:55:56.188Z,112128.00
2018-07-12T11:56:56.246Z,45408.00
2018-07-12T11:57:56.171Z,35808.00
2018-07-12T11:58:56.167Z,34400.00
2018-07-12T11:59:57.011Z,33632.00
2018-07-12T12:00:56.139Z,31808.00
2018-07-12T12:01:56.250Z,30592.00
2018-07-12T12:02:56.133Z,29152.00
2018-07-12T12:03:56.114Z,26528.00
2018-07-12T12:04:56.105Z,23744.00
2018-07-12T12:05:56.094Z,20768.00
2018-07-12T12:06:56.176Z,18464.00
2018-07-12T12:07:56.077Z,16480.00
2018-07-12T12:08:56.069Z,14144.00
2018-07-12T12:09:56.055Z,13136.00
2018-07-12T12:10:56.044Z,13268.00
2018-07-12T12:11:56.134Z,13868.00
2018-07-12T12:12:56.035Z,14648.00
2018-07-12T12:13:56.020Z,15256.00